Time;durP1;ratioP1;P1;durP2;ratioP2;P2;SDS_P1;SDS_P2;PMS_P1;PMS_P2;Temp;Humidity;BMP_temperature;BMP_pressure;BME280_temperature;BME280_humidity;BME280_pressure;Samples;Min_cycle;Max_cycle;Signal;HPM_P1;HPM_P2
2021/08/08 00:02:02;;;;;;;10.52;4.82;;;16.20;99.90;;;;;;5049228;28;20036;-73
2021/08/08 00:04:28;;;;;;;6.55;4.25;;;16.20;99.90;;;;;;5052150;28;20036;-74
2021/08/08 00:06:53;;;;;;;7.55;4.75;;;16.20;99.90;;;;;;5050859;28;20503;-73
2021/08/08 00:09:19;;;;;;;5.22;4.70;;;16.20;99.90;;;;;;5046901;28;20032;-73
2021/08/08 00:11:45;;;;;;;11.55;4.65;;;16.30;99.90;;;;;;5051847;28;20490;-73
2021/08/08 00:14:11;;;;;;;7.53;4.35;;;16.20;99.90;;;;;;5051344;28;20029;-72
2021/08/08 00:16:37;;;;;;;4.75;3.92;;;16.20;99.90;;;;;;5051118;28;20038;-73
2021/08/08 00:19:02;;;;;;;8.55;4.20;;;16.30;99.90;;;;;;5053099;28;20108;-72
2021/08/08 00:21:28;;;;;;;5.88;4.50;;;16.30;99.90;;;;;;5047535;28;20028;-72
2021/08/08 00:23:54;;;;;;;6.97;4.30;;;16.20;99.90;;;;;;5054141;28;20100;-72
2021/08/08 00:26:20;;;;;;;7.80;3.97;;;16.20;99.90;;;;;;5052934;28;20028;-72
2021/08/08 00:28:48;;;;;;;5.90;4.28;;;16.20;99.90;;;;;;5054083;28;20025;-72
2021/08/08 00:31:16;;;;;;;5.53;4.13;;;16.30;99.90;;;;;;5054072;28;20431;-72
2021/08/08 00:33:41;;;;;;;;;;;16.30;99.90;;;;;;5053107;28;20017;-72
2021/08/08 00:36:07;;;;;;;4.32;3.92;;;16.30;99.90;;;;;;5055705;28;19913;-73
2021/08/08 00:38:33;;;;;;;9.07;4.55;;;16.30;99.90;;;;;;5054443;28;20025;-73
2021/08/08 00:40:58;;;;;;;5.70;3.45;;;16.30;99.90;;;;;;5055868;28;20032;-73
2021/08/08 00:43:24;;;;;;;6.07;3.80;;;16.30;99.90;;;;;;5055574;28;20037;-73
2021/08/08 00:45:49;;;;;;;5.95;3.88;;;16.30;99.90;;;;;;5055705;28;20032;-72
2021/08/08 00:48:16;;;;;;;4.35;3.47;;;16.30;99.90;;;;;;5056135;28;20401;-72
2021/08/08 00:50:42;;;;;;;5.30;3.85;;;16.30;99.90;;;;;;5055296;28;20025;-73
2021/08/08 00:53:07;;;;;;;7.78;4.15;;;16.40;99.90;;;;;;5053429;28;20024;-72
2021/08/08 00:55:33;;;;;;;5.97;3.45;;;16.40;99.90;;;;;;5052718;28;20024;-73
2021/08/08 00:57:59;;;;;;;7.47;3.28;;;16.30;99.90;;;;;;5051548;28;20049;-72
2021/08/08 01:00:25;;;;;;;4.10;3.33;;;16.30;99.90;;;;;;5052539;28;20021;-72
2021/08/08 01:02:56;;;;;;;5.68;3.05;;;16.30;99.90;;;;;;5052873;28;20056;-73
2021/08/08 01:05:30;;;;;;;9.27;3.28;;;16.30;99.90;;;;;;5052147;28;20028;-74
2021/08/08 01:08:02;;;;;;;8.73;4.05;;;16.30;99.90;;;;;;5051065;28;20511;-75
2021/08/08 01:10:29;;;;;;;3.33;2.30;;;16.30;99.90;;;;;;5051699;28;20067;-75
2021/08/08 01:12:55;;;;;;;8.30;3.25;;;16.30;99.90;;;;;;5051206;28;20540;-74
2021/08/08 01:15:22;;;;;;;5.25;2.70;;;16.30;99.90;;;;;;5050852;28;20043;-74
2021/08/08 01:17:49;;;;;;;7.10;3.45;;;16.30;99.90;;;;;;5051198;28;20032;-74
2021/08/08 01:20:15;;;;;;;7.63;2.77;;;16.30;99.90;;;;;;5050425;28;20373;-74
2021/08/08 01:22:49;;;;;;;6.38;2.67;;;16.40;99.90;;;;;;5052830;28;20025;-75
2021/08/08 01:25:15;;;;;;;8.35;2.65;;;16.40;99.90;;;;;;5052421;28;20025;-75
2021/08/08 01:27:41;;;;;;;10.55;2.90;;;16.40;99.90;;;;;;5051869;28;20366;-76
2021/08/08 01:30:08;;;;;;;6.07;2.40;;;16.30;99.90;;;;;;5067568;28;20021;-76
2021/08/08 01:32:34;;;;;;;4.45;2.60;;;16.30;99.90;;;;;;5052042;28;20028;-75
2021/08/08 01:35:00;;;;;;;5.85;2.85;;;16.30;99.90;;;;;;5050051;28;20044;-75
2021/08/08 01:37:26;;;;;;;6.78;4.20;;;16.30;99.90;;;;;;5050550;28;20043;-75
2021/08/08 01:40:17;;;;;;;10.63;3.60;;;16.40;99.90;;;;;;5048342;28;20021;-75
2021/08/08 01:42:45;;;;;;;4.82;3.80;;;16.30;99.90;;;;;;5051496;28;20036;-75
2021/08/08 01:45:14;;;;;;;9.10;3.10;;;16.30;99.90;;;;;;5050418;28;20111;-74
2021/08/08 01:47:47;;;;;;;10.27;3.50;;;16.30;99.90;;;;;;5049099;28;20131;-74
2021/08/08 01:50:14;;;;;;;9.63;4.47;;;16.30;99.90;;;;;;5067100;28;20087;-74
2021/08/08 01:52:40;;;;;;;12.18;4.38;;;16.30;99.90;;;;;;5052032;28;20036;-73
2021/08/08 01:55:06;;;;;;;13.45;4.93;;;16.30;99.90;;;;;;5050043;28;20555;-73
2021/08/08 01:57:34;;;;;;;14.43;4.93;;;16.30;99.90;;;;;;5059209;28;20037;-73
2021/08/08 02:00:00;;;;;;;11.75;5.03;;;16.30;99.90;;;;;;5050760;28;20083;-73
2021/08/08 02:02:26;;;;;;;15.52;5.88;;;16.30;99.90;;;;;;5051780;28;20036;-73
2021/08/08 02:04:51;;;;;;;12.25;4.90;;;16.30;99.90;;;;;;5051883;28;20130;-74
2021/08/08 02:07:18;;;;;;;9.40;5.28;;;16.40;99.90;;;;;;5050712;28;20029;-73
2021/08/08 02:09:45;;;;;;;16.20;5.13;;;16.40;99.90;;;;;;5055081;28;20049;-73
2021/08/08 02:12:11;;;;;;;15.30;5.22;;;16.40;99.90;;;;;;5055897;28;20132;-74
2021/08/08 02:14:37;;;;;;;10.50;5.97;;;16.30;99.90;;;;;;5054620;28;20036;-73
2021/08/08 02:17:04;;;;;;;16.75;4.97;;;16.30;99.90;;;;;;5052653;28;20110;-74
2021/08/08 02:19:29;;;;;;;11.35;5.40;;;16.40;99.90;;;;;;5072843;28;20017;-73
2021/08/08 02:21:56;;;;;;;8.60;4.22;;;16.40;99.90;;;;;;5056273;28;20048;-73
2021/08/08 02:24:22;;;;;;;14.02;4.30;;;16.40;99.90;;;;;;5055542;28;20051;-73
2021/08/08 02:26:48;;;;;;;16.50;4.80;;;16.40;99.90;;;;;;5069850;28;20021;-74
2021/08/08 02:29:13;;;;;;;16.27;5.10;;;16.40;99.90;;;;;;5054051;28;20028;-73
2021/08/08 02:31:42;;;;;;;15.60;5.43;;;16.40;99.90;;;;;;5052117;28;20477;-73
2021/08/08 02:34:09;;;;;;;19.20;5.60;;;16.40;99.90;;;;;;5053667;28;20029;-74
2021/08/08 02:36:34;;;;;;;15.48;6.20;;;16.40;99.90;;;;;;5055257;28;20365;-75
2021/08/08 02:39:01;;;;;;;25.88;7.13;;;16.40;99.90;;;;;;5055126;28;20035;-74
2021/08/08 02:41:27;;;;;;;28.52;5.63;;;16.50;99.90;;;;;;5055148;28;20108;-75
2021/08/08 02:43:56;;;;;;;20.95;6.75;;;16.50;99.90;;;;;;5055013;28;20448;-74
2021/08/08 02:46:22;;;;;;;20.45;5.93;;;16.50;99.90;;;;;;5070091;28;20040;-74
2021/08/08 02:48:48;;;;;;;20.70;5.65;;;16.50;99.90;;;;;;5053011;28;20035;-74
2021/08/08 02:51:14;;;;;;;26.23;5.78;;;16.50;99.90;;;;;;5053753;28;20358;-73
2021/08/08 02:53:40;;;;;;;33.10;5.63;;;16.50;99.90;;;;;;5054725;28;20029;-73
2021/08/08 02:56:05;;;;;;;28.65;6.75;;;16.40;99.90;;;;;;5054924;28;20102;-74
2021/08/08 02:58:31;;;;;;;31.60;5.85;;;16.40;99.90;;;;;;5054399;28;20378;-73
2021/08/08 03:00:57;;;;;;;19.88;5.63;;;16.40;99.90;;;;;;5053401;28;20029;-74
2021/08/08 03:03:23;;;;;;;24.05;5.95;;;16.40;99.90;;;;;;5054528;28;20065;-74
2021/08/08 03:05:48;;;;;;;20.10;5.80;;;16.40;99.90;;;;;;5054567;28;20266;-74
2021/08/08 03:08:14;;;;;;;20.52;5.50;;;16.30;99.90;;;;;;5054459;28;20029;-75
2021/08/08 03:10:40;;;;;;;28.42;5.55;;;16.40;99.90;;;;;;5054146;28;20021;-73
2021/08/08 03:13:05;;;;;;;13.80;5.05;;;16.40;99.90;;;;;;5053352;28;20158;-74
2021/08/08 03:15:31;;;;;;;23.42;6.75;;;16.30;99.90;;;;;;5057089;28;20025;-74
2021/08/08 03:17:57;;;;;;;27.60;5.72;;;16.30;99.90;;;;;;5054538;28;20393;-74
2021/08/08 03:20:23;;;;;;;22.55;5.30;;;16.30;99.90;;;;;;5052328;28;20037;-74
2021/08/08 03:22:49;;;;;;;23.45;6.25;;;16.30;99.90;;;;;;5052809;28;20029;-74
2021/08/08 03:25:15;;;;;;;19.45;7.03;;;16.30;99.90;;;;;;5053940;28;20025;-74
2021/08/08 03:27:40;;;;;;;20.08;5.43;;;16.20;99.90;;;;;;5056154;28;20024;-74
2021/08/08 03:30:07;;;;;;;20.45;7.55;;;16.20;99.90;;;;;;5052714;28;20053;-74
2021/08/08 03:32:34;;;;;;;18.92;6.50;;;16.20;99.90;;;;;;5053868;28;20055;-74
2021/08/08 03:34:59;;;;;;;24.98;6.65;;;16.20;99.90;;;;;;5053788;28;20039;-74
2021/08/08 03:37:25;;;;;;;18.55;5.25;;;16.20;99.90;;;;;;5052591;28;20037;-74
2021/08/08 03:39:51;;;;;;;19.75;5.63;;;16.10;99.90;;;;;;5053502;28;20029;-74
2021/08/08 03:42:16;;;;;;;19.88;5.40;;;16.10;99.90;;;;;;5053667;28;20389;-73
2021/08/08 03:44:42;;;;;;;15.98;5.50;;;16.10;99.90;;;;;;5052247;28;20020;-74
2021/08/08 03:47:08;;;;;;;12.82;5.40;;;16.00;99.90;;;;;;5066212;28;20029;-74
2021/08/08 03:49:33;;;;;;;28.73;5.65;;;16.10;99.90;;;;;;5052535;28;20029;-74
2021/08/08 03:51:59;;;;;;;15.73;5.07;;;16.00;99.90;;;;;;5052887;28;20033;-75
2021/08/08 03:54:26;;;;;;;9.95;5.13;;;16.10;99.90;;;;;;5055758;28;20115;-75
2021/08/08 03:56:52;;;;;;;19.80;4.20;;;16.10;99.90;;;;;;5056303;28;20036;-75
2021/08/08 03:59:18;;;;;;;24.92;5.72;;;16.10;99.90;;;;;;5068653;28;20400;-75
2021/08/08 04:01:44;;;;;;;26.70;6.18;;;16.10;99.90;;;;;;5054602;28;20546;-75
2021/08/08 04:04:09;;;;;;;12.13;4.55;;;16.10;99.90;;;;;;5056924;28;20086;-74
2021/08/08 04:06:35;;;;;;;12.48;4.03;;;16.10;99.90;;;;;;5070238;28;20488;-75
2021/08/08 04:09:00;;;;;;;14.73;4.43;;;16.00;99.90;;;;;;5052257;28;20025;-74
2021/08/08 04:11:26;;;;;;;15.48;4.63;;;16.10;99.90;;;;;;5053301;28;20472;-75
2021/08/08 04:13:52;;;;;;;12.15;4.85;;;16.10;99.90;;;;;;5054335;28;20033;-74
2021/08/08 04:16:17;;;;;;;10.25;3.83;;;16.00;99.90;;;;;;5052692;28;20033;-74
2021/08/08 04:18:43;;;;;;;16.65;4.30;;;16.00;99.90;;;;;;5053119;28;20431;-74
2021/08/08 04:21:08;;;;;;;14.68;4.38;;;16.00;99.90;;;;;;5052573;28;20025;-73
2021/08/08 04:23:34;;;;;;;7.20;3.65;;;16.00;99.90;;;;;;5052777;28;20477;-74
2021/08/08 04:26:00;;;;;;;15.77;4.50;;;16.00;99.90;;;;;;5052803;28;20163;-76
2021/08/08 04:28:25;;;;;;;7.15;3.75;;;16.00;99.90;;;;;;5053763;28;20381;-75
2021/08/08 04:30:51;;;;;;;18.77;5.07;;;15.90;99.90;;;;;;5049869;28;20082;-76
2021/08/08 04:33:17;;;;;;;13.43;4.53;;;15.90;99.90;;;;;;5052446;28;20166;-75
2021/08/08 04:35:42;;;;;;;12.15;4.00;;;15.90;99.90;;;;;;5052981;28;20043;-75
2021/08/08 04:38:08;;;;;;;8.57;4.43;;;15.80;99.90;;;;;;5053057;28;20025;-75
2021/08/08 04:40:33;;;;;;;14.80;5.88;;;15.80;99.90;;;;;;5051540;28;20487;-74
2021/08/08 04:42:59;;;;;;;21.50;5.47;;;15.80;99.90;;;;;;5052581;28;20023;-75
2021/08/08 04:45:25;;;;;;;29.88;5.65;;;15.80;99.90;;;;;;5052941;28;20051;-74
2021/08/08 04:47:52;;;;;;;27.80;5.80;;;15.80;99.90;;;;;;5052782;28;20043;-75
2021/08/08 04:50:20;;;;;;;19.20;6.57;;;15.80;99.90;;;;;;5053518;28;20036;-75
2021/08/08 04:52:46;;;;;;;17.15;4.55;;;15.80;99.90;;;;;;5052667;28;20029;-74
2021/08/08 04:55:12;;;;;;;18.83;4.88;;;15.80;99.90;;;;;;5052391;28;20021;-75
2021/08/08 04:57:38;;;;;;;25.85;5.85;;;15.80;99.90;;;;;;5052130;28;20046;-75
2021/08/08 05:00:05;;;;;;;22.45;4.97;;;15.90;99.90;;;;;;5050337;28;20509;-75
2021/08/08 05:02:31;;;;;;;27.95;6.30;;;15.80;99.90;;;;;;5052178;28;20111;-75
2021/08/08 05:04:57;;;;;;;28.50;5.22;;;15.80;99.90;;;;;;5052300;28;20103;-75
2021/08/08 05:07:22;;;;;;;24.88;6.07;;;15.90;99.90;;;;;;5050901;28;20032;-75
2021/08/08 05:09:48;;;;;;;28.58;5.50;;;15.90;99.90;;;;;;5052250;28;20017;-75
2021/08/08 05:12:14;;;;;;;24.00;5.93;;;15.90;99.90;;;;;;5054501;28;20416;-75
2021/08/08 05:14:40;;;;;;;17.58;5.47;;;15.90;99.90;;;;;;5052889;28;20033;-75
2021/08/08 05:17:06;;;;;;;20.73;5.25;;;16.00;99.90;;;;;;5050818;28;20363;-75
2021/08/08 05:19:32;;;;;;;20.73;5.15;;;15.90;99.90;;;;;;5052564;28;20017;-75
2021/08/08 05:21:57;;;;;;;21.05;6.15;;;15.90;99.90;;;;;;5053113;28;20043;-75
2021/08/08 05:24:23;;;;;;;19.65;5.85;;;15.90;99.90;;;;;;5052016;28;20060;-76
2021/08/08 05:26:48;;;;;;;23.90;5.43;;;15.90;99.90;;;;;;5050769;28;20397;-75
2021/08/08 05:29:14;;;;;;;21.30;5.18;;;15.80;99.90;;;;;;5051992;28;20032;-75
2021/08/08 05:31:40;;;;;;;17.92;4.40;;;15.70;99.90;;;;;;5049710;28;20032;-74
2021/08/08 05:34:07;;;;;;;16.55;5.03;;;15.70;99.90;;;;;;5052736;28;20033;-75
2021/08/08 05:36:32;;;;;;;21.60;4.80;;;15.70;99.90;;;;;;5050423;28;20029;-74
2021/08/08 05:38:59;;;;;;;22.58;4.97;;;15.70;99.90;;;;;;5051358;28;20028;-74
2021/08/08 05:41:25;;;;;;;18.67;5.07;;;15.70;99.90;;;;;;5051251;28;20025;-74
2021/08/08 05:43:50;;;;;;;21.35;6.45;;;15.70;99.90;;;;;;5052613;28;20466;-75
2021/08/08 05:46:16;;;;;;;21.48;5.22;;;15.70;99.90;;;;;;5054790;28;20151;-74
2021/08/08 05:48:42;;;;;;;17.08;6.53;;;15.60;99.90;;;;;;5052600;28;20067;-75
2021/08/08 05:51:08;;;;;;;21.05;5.20;;;15.70;99.90;;;;;;5051624;28;20036;-76
2021/08/08 05:53:33;;;;;;;14.18;4.80;;;15.60;99.90;;;;;;5050514;28;20029;-75
2021/08/08 05:55:59;;;;;;;26.50;5.05;;;15.70;99.90;;;;;;5050797;28;20021;-75
2021/08/08 05:58:25;;;;;;;22.48;7.80;;;15.60;99.90;;;;;;5049997;28;20041;-76
2021/08/08 06:00:50;;;;;;;21.05;5.43;;;15.60;99.90;;;;;;5049365;28;20025;-75
2021/08/08 06:03:16;;;;;;;19.67;4.72;;;15.60;99.90;;;;;;5051047;28;20025;-75
2021/08/08 06:05:43;;;;;;;19.25;4.35;;;15.50;99.90;;;;;;5050431;28;20028;-74
2021/08/08 06:08:09;;;;;;;13.98;4.53;;;15.60;99.90;;;;;;5051590;28;20024;-74
2021/08/08 06:10:35;;;;;;;17.05;5.13;;;15.60;99.90;;;;;;5049845;28;20017;-74
2021/08/08 06:13:01;;;;;;;17.75;4.93;;;15.60;99.90;;;;;;5050598;28;20069;-75
2021/08/08 06:15:27;;;;;;;20.00;5.63;;;15.60;99.90;;;;;;5051333;28;20547;-75
2021/08/08 06:17:53;;;;;;;23.92;5.65;;;15.60;99.90;;;;;;5051422;28;20511;-74
2021/08/08 06:20:19;;;;;;;17.10;5.00;;;15.60;99.90;;;;;;5051729;28;20021;-74
2021/08/08 06:22:45;;;;;;;15.68;5.05;;;15.50;99.90;;;;;;5051184;28;20028;-74
2021/08/08 06:25:10;;;;;;;26.20;5.32;;;15.50;99.90;;;;;;5046497;28;20100;-74
2021/08/08 06:27:36;;;;;;;27.08;6.78;;;15.50;99.90;;;;;;5043492;28;20037;-74
2021/08/08 06:30:02;;;;;;;25.25;5.57;;;15.60;99.90;;;;;;5049842;28;20127;-74
2021/08/08 06:32:28;;;;;;;22.42;5.32;;;15.80;99.90;;;;;;5049282;28;20029;-74
2021/08/08 06:34:54;;;;;;;22.10;4.75;;;15.80;99.90;;;;;;5046981;28;20021;-74
2021/08/08 06:37:19;;;;;;;24.02;4.68;;;16.00;99.90;;;;;;5052533;28;20029;-76
2021/08/08 06:39:45;;;;;;;28.77;5.10;;;16.00;99.90;;;;;;5050733;28;20025;-74
2021/08/08 06:42:10;;;;;;;19.52;4.70;;;15.90;99.90;;;;;;5056860;28;20027;-76
2021/08/08 06:44:36;;;;;;;16.75;4.13;;;15.90;99.90;;;;;;5060680;28;20171;-77
2021/08/08 06:47:02;;;;;;;24.08;5.13;;;15.90;99.90;;;;;;5063584;28;20104;-76
2021/08/08 06:49:27;;;;;;;16.50;3.83;;;15.80;99.90;;;;;;5054551;28;20089;-76
2021/08/08 06:51:53;;;;;;;25.92;5.30;;;15.80;99.90;;;;;;5047327;28;20053;-75
2021/08/08 06:54:19;;;;;;;31.50;4.75;;;15.80;99.90;;;;;;5050149;28;20044;-76
2021/08/08 06:56:44;;;;;;;26.08;4.32;;;15.80;99.90;;;;;;5052199;28;20028;-74
2021/08/08 06:59:10;;;;;;;19.85;5.00;;;15.80;99.90;;;;;;5047790;28;20051;-75
2021/08/08 07:01:35;;;;;;;22.58;5.13;;;15.90;99.90;;;;;;5049405;28;20029;-74
2021/08/08 07:04:02;;;;;;;27.20;5.00;;;15.90;99.90;;;;;;5051598;28;20096;-75
2021/08/08 07:06:28;;;;;;;23.27;4.80;;;16.00;99.90;;;;;;5045266;28;20021;-75
2021/08/08 07:08:53;;;;;;;21.10;4.25;;;16.00;99.90;;;;;;5049215;28;20075;-74
2021/08/08 07:11:19;;;;;;;20.85;3.90;;;16.00;99.90;;;;;;5043518;28;20382;-75
2021/08/08 07:13:45;;;;;;;30.48;4.72;;;16.10;99.90;;;;;;5049734;28;20052;-74
2021/08/08 07:16:10;;;;;;;22.92;4.32;;;16.10;99.90;;;;;;5049643;28;20048;-75
2021/08/08 07:18:36;;;;;;;18.65;4.90;;;16.20;99.90;;;;;;5043110;28;20022;-75
2021/08/08 07:21:02;;;;;;;20.75;4.30;;;16.20;99.90;;;;;;5046369;28;20066;-76
2021/08/08 07:23:28;;;;;;;21.00;4.90;;;16.30;99.90;;;;;;5048371;28;20512;-75
2021/08/08 07:25:53;;;;;;;19.33;3.60;;;16.40;99.90;;;;;;5047877;28;20025;-74
2021/08/08 07:28:19;;;;;;;14.93;3.78;;;16.50;99.90;;;;;;5048952;28;20017;-75
2021/08/08 07:30:45;;;;;;;19.60;3.92;;;16.60;99.90;;;;;;5048304;28;20166;-75
2021/08/08 07:33:10;;;;;;;17.23;4.88;;;16.70;99.90;;;;;;5050265;28;20095;-75
2021/08/08 07:35:36;;;;;;;15.25;4.15;;;16.80;99.90;;;;;;5049051;28;20068;-75
2021/08/08 07:38:05;;;;;;;9.55;3.75;;;16.90;99.90;;;;;;5050331;28;20567;-73
2021/08/08 07:40:32;;;;;;;17.58;5.32;;;16.80;99.90;;;;;;5050423;28;20053;-73
2021/08/08 07:42:57;;;;;;;20.52;4.40;;;16.90;99.90;;;;;;5042859;28;20033;-73
2021/08/08 07:45:23;;;;;;;17.90;2.90;;;16.90;99.90;;;;;;5043464;28;20021;-75
2021/08/08 07:47:49;;;;;;;14.07;3.50;;;16.90;99.90;;;;;;5048753;28;20087;-74
2021/08/08 07:50:15;;;;;;;19.73;4.13;;;17.00;99.90;;;;;;5043242;28;20515;-73
2021/08/08 07:52:40;;;;;;;18.48;4.07;;;17.10;99.90;;;;;;5043438;28;20651;-74
2021/08/08 07:55:07;;;;;;;21.48;3.47;;;17.20;99.90;;;;;;5048773;28;20033;-73
2021/08/08 07:57:33;;;;;;;16.35;3.90;;;17.30;99.90;;;;;;5049748;28;20025;-77
2021/08/08 07:59:59;;;;;;;17.45;3.97;;;17.30;99.90;;;;;;5051362;28;20063;-75
2021/08/08 08:02:25;;;;;;;20.42;3.72;;;17.30;99.90;;;;;;5052957;28;20021;-75
2021/08/08 08:04:50;;;;;;;13.82;4.60;;;17.30;99.90;;;;;;5047431;28;20032;-75
2021/08/08 08:07:16;;;;;;;18.88;3.47;;;17.30;99.90;;;;;;5058102;28;20021;-75
2021/08/08 08:09:42;;;;;;;24.50;3.85;;;17.30;99.90;;;;;;5058584;28;20045;-75
2021/08/08 08:12:07;;;;;;;21.60;3.10;;;17.40;99.90;;;;;;5064833;28;20029;-75
2021/08/08 08:14:33;;;;;;;15.27;2.95;;;17.40;99.90;;;;;;5057467;28;20112;-75
2021/08/08 08:16:59;;;;;;;13.82;3.17;;;17.50;99.90;;;;;;5052167;28;20040;-75
2021/08/08 08:19:25;;;;;;;17.48;3.08;;;17.50;99.90;;;;;;5058620;28;20051;-75
2021/08/08 08:22:10;;;;;;;15.57;4.03;;;17.60;99.90;;;;;;5056210;28;20110;-75
2021/08/08 08:24:35;;;;;;;12.05;3.17;;;17.70;99.90;;;;;;5050090;28;20017;-75
2021/08/08 08:27:01;;;;;;;18.40;4.15;;;17.60;99.90;;;;;;5050581;28;20488;-75
2021/08/08 08:29:26;;;;;;;16.58;2.55;;;17.60;99.90;;;;;;5052338;28;20055;-75
2021/08/08 08:31:52;;;;;;;14.73;2.90;;;17.50;99.90;;;;;;5076714;28;20083;-75
2021/08/08 08:34:17;;;;;;;15.23;3.20;;;17.40;99.90;;;;;;5055025;28;20029;-75
2021/08/08 08:36:43;;;;;;;23.27;3.75;;;17.40;99.90;;;;;;5051910;28;20045;-75
2021/08/08 08:39:09;;;;;;;18.30;3.55;;;17.40;99.90;;;;;;5046385;28;20079;-75
2021/08/08 08:41:36;;;;;;;15.43;3.53;;;17.50;99.90;;;;;;5050821;28;20052;-75
2021/08/08 08:44:03;;;;;;;15.77;3.55;;;17.50;99.90;;;;;;5045828;28;20032;-75
2021/08/08 08:46:30;;;;;;;18.55;3.50;;;17.40;99.90;;;;;;5050253;28;20035;-76
2021/08/08 08:48:56;;;;;;;17.23;3.70;;;17.30;99.90;;;;;;5052162;28;20041;-75
2021/08/08 08:51:28;;;;;;;13.15;2.90;;;17.30;99.90;;;;;;5057372;28;20469;-75
2021/08/08 08:53:55;;;;;;;21.98;3.15;;;17.40;99.90;;;;;;5056879;28;20044;-74
2021/08/08 08:56:21;;;;;;;12.80;4.50;;;17.50;99.90;;;;;;5054318;28;20068;-74
2021/08/08 08:58:47;;;;;;;14.00;4.40;;;17.70;99.90;;;;;;5060510;28;20048;-76
2021/08/08 09:01:13;;;;;;;15.02;2.80;;;17.90;99.90;;;;;;5057797;28;20023;-76
2021/08/08 09:03:40;;;;;;;14.00;3.10;;;18.10;99.90;;;;;;5055638;28;20455;-76
2021/08/08 09:06:06;;;;;;;12.82;3.22;;;18.10;99.90;;;;;;5058227;28;20422;-75
2021/08/08 09:08:32;;;;;;;15.23;3.95;;;18.10;99.90;;;;;;5049900;28;20037;-75
2021/08/08 09:11:06;;;;;;;7.78;2.88;;;18.10;99.90;;;;;;5054028;28;20044;-75
2021/08/08 09:13:55;;;;;;;22.17;3.88;;;18.10;99.90;;;;;;5060791;28;20455;-75
2021/08/08 09:16:25;;;;;;;17.95;4.45;;;18.00;99.90;;;;;;5050466;28;20083;-74
2021/08/08 09:18:53;;;;;;;10.55;3.60;;;18.00;99.90;;;;;;5045304;28;20041;-76
2021/08/08 09:21:20;;;;;;;12.50;3.75;;;18.10;99.90;;;;;;5050145;28;20032;-74
2021/08/08 09:23:55;;;;;;;15.43;4.20;;;18.10;99.90;;;;;;5052768;28;20102;-75
2021/08/08 09:26:31;;;;;;;8.77;2.45;;;18.20;99.90;;;;;;5053025;28;20104;-75
2021/08/08 09:29:14;;;;;;;13.67;2.87;;;18.30;99.90;;;;;;5054878;28;20539;-75
2021/08/08 09:31:48;;;;;;;14.50;2.72;;;18.40;99.90;;;;;;5063483;28;20064;-76
2021/08/08 09:34:35;;;;;;;18.30;2.88;;;18.50;99.90;;;;;;5070248;28;20025;-75
2021/08/08 09:37:27;;;;;;;23.45;3.80;;;18.40;99.90;;;;;;5074633;28;20059;-76
2021/08/08 09:39:54;;;;;;;13.23;3.03;;;18.30;99.90;;;;;;5053609;28;20065;-75
2021/08/08 09:42:27;;;;;;;15.82;2.42;;;18.40;99.90;;;;;;5056053;28;20013;-75
2021/08/08 09:45:07;;;;;;;12.48;3.47;;;18.50;99.90;;;;;;5074208;28;20018;-75
2021/08/08 09:47:53;;;;;;;16.27;3.80;;;18.40;99.90;;;;;;5067360;28;20101;-75
2021/08/08 09:53:08;;;;;;;12.37;2.73;;;18.60;99.90;;;;;;5057189;28;20401;-76
2021/08/08 09:55:38;;;;;;;14.52;3.00;;;18.40;99.90;;;;;;5068230;28;20736;-75
2021/08/08 09:58:10;;;;;;;9.75;2.70;;;18.30;99.90;;;;;;5050940;28;20064;-75
2021/08/08 10:00:39;;;;;;;17.23;3.53;;;18.50;99.90;;;;;;5054190;28;20396;-75
2021/08/08 10:03:15;;;;;;;8.00;2.85;;;18.60;99.90;;;;;;5055684;28;20396;-77
2021/08/08 10:05:45;;;;;;;6.70;2.63;;;18.80;99.90;;;;;;5049066;28;20465;-75
2021/08/08 10:08:21;;;;;;;12.50;3.42;;;19.10;99.90;;;;;;5061037;28;20023;-74
2021/08/08 10:10:48;;;;;;;10.02;2.30;;;19.10;99.90;;;;;;5046840;28;20029;-75
2021/08/08 10:13:38;;;;;;;12.63;3.45;;;19.20;99.90;;;;;;5051904;28;20376;-77
2021/08/08 10:16:09;;;;;;;12.15;2.78;;;19.10;99.90;;;;;;5050080;28;20056;-75
2021/08/08 10:18:41;;;;;;;13.85;3.40;;;19.10;99.90;;;;;;5050472;28;20061;-75
2021/08/08 10:21:09;;;;;;;16.90;2.92;;;19.20;99.90;;;;;;5053184;28;20551;-75
2021/08/08 10:23:36;;;;;;;15.07;3.15;;;19.20;99.90;;;;;;5050598;28;20017;-75
2021/08/08 10:26:02;;;;;;;11.88;2.78;;;19.10;99.90;;;;;;5050977;28;20021;-74
2021/08/08 10:28:28;;;;;;;13.00;2.53;;;19.00;99.90;;;;;;5051953;28;20438;-74
2021/08/08 10:30:58;;;;;;;9.02;2.47;;;18.90;99.90;;;;;;5069650;28;20028;-73
2021/08/08 10:33:24;;;;;;;11.80;2.78;;;18.80;99.90;;;;;;5053989;28;20025;-75
2021/08/08 10:35:51;;;;;;;8.73;2.88;;;18.90;99.90;;;;;;5054035;28;20029;-75
2021/08/08 10:38:18;;;;;;;9.15;2.25;;;18.80;99.90;;;;;;5055941;28;20023;-74
2021/08/08 10:40:44;;;;;;;8.32;2.50;;;18.90;99.90;;;;;;5055390;28;20483;-75
2021/08/08 10:43:28;;;;;;;13.85;2.85;;;18.90;99.90;;;;;;5063045;28;20028;-75
2021/08/08 10:46:09;;;;;;;8.65;2.50;;;18.90;99.90;;;;;;5052464;28;20021;-75
2021/08/08 10:48:36;;;;;;;11.90;2.55;;;19.10;99.90;;;;;;5068174;28;20021;-74
2021/08/08 10:51:02;;;;;;;5.35;2.03;;;19.50;99.90;;;;;;5054411;28;20033;-73
2021/08/08 10:53:30;;;;;;;7.50;2.22;;;19.70;99.90;;;;;;5070808;28;20424;-74
2021/08/08 10:56:06;;;;;;;;;;;19.70;99.90;;;;;;5055767;28;20025;-74
2021/08/08 10:58:34;;;;;;;7.63;2.60;;;19.80;99.90;;;;;;5053506;28;19917;-75
2021/08/08 11:00:59;;;;;;;8.40;2.47;;;19.80;99.90;;;;;;5055408;28;20029;-74
2021/08/08 11:03:25;;;;;;;9.93;2.90;;;19.70;99.90;;;;;;5055392;28;20070;-74
2021/08/08 11:05:51;;;;;;;9.18;2.55;;;19.50;99.90;;;;;;5069972;28;20063;-75
2021/08/08 11:08:18;;;;;;;14.20;2.53;;;19.40;99.90;;;;;;5055063;28;20029;-74
2021/08/08 11:10:44;;;;;;;;;;;19.40;99.90;;;;;;5055523;28;20155;-74
2021/08/08 11:13:26;;;;;;;9.90;2.15;;;19.40;99.90;;;;;;5053479;28;19962;-74
2021/08/08 11:15:52;;;;;;;11.15;2.40;;;19.40;99.90;;;;;;5054234;28;20028;-73
2021/08/08 11:18:28;;;;;;;15.43;3.13;;;19.60;99.90;;;;;;5053606;28;20029;-73
2021/08/08 11:20:54;;;;;;;10.45;2.63;;;19.90;99.90;;;;;;5054522;28;20028;-74
2021/08/08 11:23:30;;;;;;;6.70;2.33;;;20.10;99.90;;;;;;5055028;28;20021;-74
2021/08/08 11:25:57;;;;;;;8.70;2.33;;;20.20;99.90;;;;;;5056437;28;20469;-74
2021/08/08 11:28:23;;;;;;;6.53;2.72;;;20.00;99.90;;;;;;5069491;28;20037;-74
2021/08/08 11:30:49;;;;;;;5.00;2.00;;;19.80;99.90;;;;;;5054083;28;20392;-73
2021/08/08 11:33:15;;;;;;;10.55;2.67;;;19.70;99.90;;;;;;5054511;28;20013;-73
2021/08/08 11:35:42;;;;;;;5.53;2.05;;;19.80;99.90;;;;;;5053345;28;20087;-73
2021/08/08 11:38:19;;;;;;;11.25;2.40;;;20.00;99.90;;;;;;5054537;28;20063;-73
2021/08/08 11:40:47;;;;;;;4.35;2.45;;;20.20;99.90;;;;;;5054305;28;20025;-73
2021/08/08 11:43:14;;;;;;;8.88;2.38;;;20.20;99.90;;;;;;5054073;28;20028;-74
2021/08/08 11:45:49;;;;;;;7.70;2.55;;;20.30;99.90;;;;;;5056251;28;20050;-73
2021/08/08 11:48:19;;;;;;;7.35;2.65;;;20.20;99.90;;;;;;5055589;28;20071;-73
2021/08/08 11:51:00;;;;;;;10.82;2.00;;;20.20;99.90;;;;;;5057000;28;20032;-73
2021/08/08 11:53:34;;;;;;;6.93;2.22;;;20.10;99.90;;;;;;5054251;28;20384;-74
2021/08/08 11:56:22;;;;;;;6.82;2.70;;;20.10;99.90;;;;;;5054032;28;20025;-73
2021/08/08 11:58:53;;;;;;;4.68;2.58;;;20.20;99.90;;;;;;5052614;28;20040;-73
2021/08/08 12:01:20;;;;;;;7.93;2.10;;;20.30;99.90;;;;;;5052441;28;20083;-74
2021/08/08 12:04:08;;;;;;;3.17;1.20;;;20.20;99.90;;;;;;5069657;28;20112;-74
2021/08/08 12:06:35;;;;;;;9.68;2.83;;;20.00;99.90;;;;;;5074989;28;20072;-73
2021/08/08 12:09:01;;;;;;;8.60;1.90;;;19.70;99.90;;;;;;5075053;28;20020;-75
2021/08/08 12:11:27;;;;;;;14.45;3.80;;;19.40;99.90;;;;;;5074998;28;20054;-74
2021/08/08 12:14:07;;;;;;;9.13;3.00;;;18.80;99.90;;;;;;5073540;28;20078;-74
2021/08/08 12:16:34;;;;;;;5.68;2.70;;;18.00;99.90;;;;;;5073388;28;20467;-73
2021/08/08 12:19:00;;;;;;;6.38;2.85;;;17.50;99.90;;;;;;5074912;28;20013;-74
2021/08/08 12:21:26;;;;;;;9.00;2.40;;;17.20;99.90;;;;;;5075223;28;20024;-74
2021/08/08 12:24:11;;;;;;;9.77;2.60;;;17.00;99.90;;;;;;5073812;28;20070;-73
2021/08/08 12:26:49;;;;;;;6.63;2.60;;;16.90;99.90;;;;;;5074735;28;20048;-73
2021/08/08 12:29:14;;;;;;;;;;;16.90;99.90;;;;;;5074902;28;20033;-74
2021/08/08 12:31:42;;;;;;;10.35;2.65;;;16.80;99.90;;;;;;5073316;28;19911;-74
2021/08/08 12:34:12;;;;;;;6.28;2.40;;;16.80;99.90;;;;;;5072871;28;20028;-75
2021/08/08 12:36:39;;;;;;;6.30;2.85;;;16.80;99.90;;;;;;5053145;28;20017;-75
2021/08/08 12:39:05;;;;;;;;;;;16.80;99.90;;;;;;5055024;28;20029;-75
2021/08/08 12:41:36;;;;;;;8.50;2.38;;;16.90;99.90;;;;;;5053260;28;19912;-74
2021/08/08 12:44:02;;;;;;;5.25;2.22;;;16.80;99.90;;;;;;5054722;28;20469;-74
2021/08/08 12:46:31;;;;;;;4.55;1.98;;;16.90;99.90;;;;;;5055331;28;20025;-75